Flight Track Log - Related Links

Times and Time Zones

All times are in EDT time to prevent confusion due to time zone crossing. See the EJA831 flight status page for this flight to view local times or setup timezone preferences in your user account.

Time Position Orientation Groundspeed Altitude Reporting Facility
EDT Latitude Longitude Course Direction KTS MPH feet Rate Location/Type
Thu 12:52:43 PM 42.3667 -70.9833 75° East 156 180 900  Level KA90
Thu 12:53:43 PM 42.3833 -70.9000 75° East 239 275 3,600 3,095 Climbing KA90
Thu 12:54:49 PM 42.3833 -70.7833 90° East 277 319 7,400 3,300 Climbing KA90
Thu 12:55:43 PM 42.3333 -70.7167 135° Southeast 291 335 10,200 2,727 Climbing KA90
Thu 12:56:28 PM 42.2814 -70.7339 194° South 305 351 11,900 1,029 Climbing Boston Center
Thu 12:57:28 PM 42.2322 -70.7997 225° Southwest 287 330 12,000 50 Climbing Boston Center
Thu 12:58:28 PM 42.2006 -70.9267 251° West 272 313 12,000  Level Boston Center
Thu 12:59:28 PM 42.1981 -71.0444 268° West 285 328 12,000  Level Boston Center
Thu 01:00:28 PM 42.1950 -71.1397 268° West 301 346 12,000  Level Boston Center
Thu 01:01:28 PM 42.1944 -71.2828 270° West 316 364 12,000  Level Boston Center
Thu 01:02:28 PM 42.1933 -71.3978 269° West 316 364 12,000  Level Boston Center
Thu 01:03:28 PM 42.1925 -71.5211 270° West 316 364 12,000  Level Boston Center
Thu 01:04:28 PM 42.1869 -71.6303 266° West 321 369 12,000  Level Boston Center
Thu 01:05:28 PM 42.1858 -71.7536 269° West 332 382 12,000  Level Boston Center
Thu 01:06:28 PM 42.1844 -71.8769 269° West 332 382 12,000  Level Boston Center
Thu 01:07:28 PM 42.1850 -72.0003 270° West 332 382 12,000  Level Boston Center
Thu 01:08:28 PM 42.1811 -72.1264 268° West 322 371 12,000  Level Boston Center
Thu 01:09:28 PM 42.1772 -72.2244 267° West 298 343 12,000  Level Boston Center
Thu 01:10:28 PM 42.1733 -72.3506 268° West 298 343 12,000  Level Boston Center
Thu 01:11:28 PM 42.1711 -72.4597 268° West 314 361 12,000  Level Boston Center
Thu 01:12:40 PM 42.1669 -72.5914 268° West 322 371 12,000  Level Boston Center
Thu 01:13:40 PM 42.1603 -72.7369 267° West 328 377 12,000  Level Boston Center
Thu 01:14:40 PM 42.1536 -72.8544 266° West 328 377 12,000  Level Boston Center
Thu 01:15:40 PM 42.1447 -72.9833 265° West 333 383 12,000  Level Boston Center
Thu 01:16:40 PM 42.1381 -73.1064 266° West 333 383 12,000  Level Boston Center
Thu 01:17:40 PM 42.1289 -73.2294 264° West 333 383 12,000  Level Boston Center
Thu 01:18:40 PM 42.1175 -73.3553 263° West 333 383 12,000  Level Boston Center
Thu 01:19:40 PM 42.1081 -73.4811 264° West 339 390 12,000  Level Boston Center
Thu 01:20:40 PM 42.1006 -73.6069 265° West 339 390 12,000  Level Boston Center
Thu 01:21:53 PM 42.0908 -73.7269 264° West 335 386 12,000  Level Boston Center
Thu 01:22:52 PM 42.0808 -73.8694 265° West 340 391 12,000  Level Boston Center
Thu 01:23:52 PM 42.0708 -74.0064 264° West 340 391 12,000 -600 Level Boston Center
Thu 01:25:00 PM 42.0473 -74.1358 264° West  Level FlightAware Approximate
Thu 01:25:52 PM 42.0050 -74.2197 264° West 323 372 10,200  Level Boston Center
Thu 01:26:52 PM 41.9411 -74.3017 224° Southwest 323 372 10,000 -100 Descending Boston Center
Thu 01:27:52 PM 41.8772 -74.3836 224° Southwest 317 365 10,000 -200 Level Boston Center
Thu 01:28:52 PM 41.8056 -74.4369 209° Southwest 310 357 9,600 -800 Descending Boston Center
Thu 01:29:52 PM 41.7300 -74.4681 197° South 298 343 8,400 -1,300 Descending Boston Center
Thu 01:30:52 PM 41.6544 -74.4961 196° South 283 326 7,000 -1,000 Descending Boston Center
Thu 01:31:52 PM 41.5850 -74.5244 197° South 278 320 6,400 -335 Descending Boston Center
Thu 01:33:51 PM 41.4500 -74.5833 198° South 256 295 6,000 -168 Descending New York TRACON
Thu 01:34:51 PM 41.3833 -74.6000 191° South 258 297 5,900 -500 Descending New York TRACON
Thu 01:35:51 PM 41.3167 -74.5500 151° Southeast 264 304 5,000 -750 Descending New York TRACON
Thu 01:36:51 PM 41.2833 -74.4833 124° Southeast 250 288 4,400 -500 Descending New York TRACON
Thu 01:37:51 PM 41.2333 -74.4000 129° Southeast 249 287 4,000 -650 Descending New York TRACON
Thu 01:38:51 PM 41.2000 -74.3333 124° Southeast 259 298 3,100 -500 Descending New York TRACON
Thu 01:39:51 PM 41.1500 -74.2667 135° Southeast 246 283 3,000 -50 Descending New York TRACON
Thu 01:40:51 PM 41.1167 -74.1833 118° Southeast 237 273 3,000  Level New York TRACON
Thu 01:41:51 PM 41.0667 -74.1167 135° Southeast 245 282 3,000 -400 Level New York TRACON
Thu 01:42:51 PM 41.0333 -74.0667 131° Southeast 217 250 2,200 -500 Descending New York TRACON
Thu 01:43:51 PM 40.9667 -74.0500 169° South 197 227 2,000 -450 Descending New York TRACON
Thu 01:44:51 PM 40.9167 -74.0500 180° South 186 214 1,300 -750 Descending New York TRACON
Thu 01:45:51 PM 40.8833 -74.0500 180° South 129 148 500 -800 Descending New York TRACON
Thu 01:47:00 PM 40.8500 -74.0500 114° Southeast  Level FlightAware Approximate
Thu 01:54:00 PM 40.8501 -74.0608 114° Southeast  Level Estimated

Login

Don't have an account? Register now (free) for customized features, flight alerts, and more!